sensor_id;sensor_type;location;lat;lon;timestamp;temperature;humidity
41060;DHT22;26811;53.160;8.202;2022-09-23T00:04:44;8.50;99.90
41060;DHT22;26811;53.160;8.202;2022-09-23T00:09:46;8.50;99.90
41060;DHT22;26811;53.160;8.202;2022-09-23T00:14:46;8.50;99.90
41060;DHT22;26811;53.160;8.202;2022-09-23T00:19:47;8.50;99.90
41060;DHT22;26811;53.160;8.202;2022-09-23T00:24:47;8.40;99.90
41060;DHT22;26811;53.160;8.202;2022-09-23T00:29:48;8.40;99.90
41060;DHT22;26811;53.160;8.202;2022-09-23T00:34:48;8.40;99.90
41060;DHT22;26811;53.160;8.202;2022-09-23T00:39:49;8.40;99.90
41060;DHT22;26811;53.160;8.202;2022-09-23T00:44:54;8.30;99.90
41060;DHT22;26811;53.160;8.202;2022-09-23T00:49:56;8.30;99.90
41060;DHT22;26811;53.160;8.202;2022-09-23T00:54:59;8.30;99.90
41060;DHT22;26811;53.160;8.202;2022-09-23T01:00:02;8.30;99.90
41060;DHT22;26811;53.160;8.202;2022-09-23T01:05:04;8.20;99.90
41060;DHT22;26811;53.160;8.202;2022-09-23T01:10:05;8.20;99.90
41060;DHT22;26811;53.160;8.202;2022-09-23T01:30:47;8.20;99.90
41060;DHT22;26811;53.160;8.202;2022-09-23T01:35:54;8.20;99.90
41060;DHT22;26811;53.160;8.202;2022-09-23T01:45:58;8.30;99.90
41060;DHT22;26811;53.160;8.202;2022-09-23T01:51:01;8.40;99.90
41060;DHT22;26811;53.160;8.202;2022-09-23T01:56:05;8.40;99.90
41060;DHT22;26811;53.160;8.202;2022-09-23T02:01:08;8.50;99.90
41060;DHT22;26811;53.160;8.202;2022-09-23T02:06:20;8.50;99.90
41060;DHT22;26811;53.160;8.202;2022-09-23T02:11:22;8.60;99.90
41060;DHT22;26811;53.160;8.202;2022-09-23T02:16:40;8.60;99.90
41060;DHT22;26811;53.160;8.202;2022-09-23T02:21:42;8.70;99.90
41060;DHT22;26811;53.160;8.202;2022-09-23T02:37:04;8.80;99.90
41060;DHT22;26811;53.160;8.202;2022-09-23T02:42:07;8.90;99.90
41060;DHT22;26811;53.160;8.202;2022-09-23T02:47:09;8.90;99.90
41060;DHT22;26811;53.160;8.202;2022-09-23T02:52:09;8.80;99.90
41060;DHT22;26811;53.160;8.202;2022-09-23T02:57:12;8.80;99.90
41060;DHT22;26811;53.160;8.202;2022-09-23T03:12:53;8.70;99.90
41060;DHT22;26811;53.160;8.202;2022-09-23T03:18:07;8.60;99.90
41060;DHT22;26811;53.160;8.202;2022-09-23T03:23:09;8.60;99.90
41060;DHT22;26811;53.160;8.202;2022-09-23T03:28:12;8.50;99.90
41060;DHT22;26811;53.160;8.202;2022-09-23T03:33:14;8.50;99.90
41060;DHT22;26811;53.160;8.202;2022-09-23T03:38:17;8.50;99.90
41060;DHT22;26811;53.160;8.202;2022-09-23T03:43:17;8.50;99.90
41060;DHT22;26811;53.160;8.202;2022-09-23T03:48:18;8.50;99.90
41060;DHT22;26811;53.160;8.202;2022-09-23T03:53:21;8.50;99.90
41060;DHT22;26811;53.160;8.202;2022-09-23T03:58:21;8.50;99.90
41060;DHT22;26811;53.160;8.202;2022-09-23T04:03:22;8.50;99.90
41060;DHT22;26811;53.160;8.202;2022-09-23T04:08:22;8.50;99.90
41060;DHT22;26811;53.160;8.202;2022-09-23T04:13:23;8.50;99.90
41060;DHT22;26811;53.160;8.202;2022-09-23T04:18:23;8.50;99.90
41060;DHT22;26811;53.160;8.202;2022-09-23T04:23:24;8.40;99.90
41060;DHT22;26811;53.160;8.202;2022-09-23T04:28:25;8.30;99.90
41060;DHT22;26811;53.160;8.202;2022-09-23T04:33:25;8.30;99.90
41060;DHT22;26811;53.160;8.202;2022-09-23T04:38:26;8.20;99.90
41060;DHT22;26811;53.160;8.202;2022-09-23T04:43:26;8.10;99.90
41060;DHT22;26811;53.160;8.202;2022-09-23T04:48:27;8.00;99.90
41060;DHT22;26811;53.160;8.202;2022-09-23T04:53:28;8.00;99.90
41060;DHT22;26811;53.160;8.202;2022-09-23T04:58:28;7.90;99.90
41060;DHT22;26811;53.160;8.202;2022-09-23T05:03:29;7.80;99.90
41060;DHT22;26811;53.160;8.202;2022-09-23T05:08:31;7.80;99.90
41060;DHT22;26811;53.160;8.202;2022-09-23T05:13:31;7.80;99.90
41060;DHT22;26811;53.160;8.202;2022-09-23T05:18:33;7.80;99.90
41060;DHT22;26811;53.160;8.202;2022-09-23T05:23:33;7.80;99.90
41060;DHT22;26811;53.160;8.202;2022-09-23T05:28:34;7.80;99.90
41060;DHT22;26811;53.160;8.202;2022-09-23T05:33:37;7.80;99.90
41060;DHT22;26811;53.160;8.202;2022-09-23T05:38:38;7.80;99.90
41060;DHT22;26811;53.160;8.202;2022-09-23T05:43:39;7.90;99.90
41060;DHT22;26811;53.160;8.202;2022-09-23T05:48:40;7.90;99.90
41060;DHT22;26811;53.160;8.202;2022-09-23T05:53:41;8.00;99.90
41060;DHT22;26811;53.160;8.202;2022-09-23T05:58:44;8.10;99.90
41060;DHT22;26811;53.160;8.202;2022-09-23T06:03:45;8.20;99.90
41060;DHT22;26811;53.160;8.202;2022-09-23T06:08:46;8.40;99.90
41060;DHT22;26811;53.160;8.202;2022-09-23T06:13:47;8.60;99.90
41060;DHT22;26811;53.160;8.202;2022-09-23T06:18:48;9.00;99.90
41060;DHT22;26811;53.160;8.202;2022-09-23T06:23:48;9.30;99.90
41060;DHT22;26811;53.160;8.202;2022-09-23T06:28:49;9.50;99.90
41060;DHT22;26811;53.160;8.202;2022-09-23T06:33:49;9.80;99.90
41060;DHT22;26811;53.160;8.202;2022-09-23T06:38:50;10.00;99.90
41060;DHT22;26811;53.160;8.202;2022-09-23T06:43:50;10.20;99.90
41060;DHT22;26811;53.160;8.202;2022-09-23T06:48:51;10.30;99.90
41060;DHT22;26811;53.160;8.202;2022-09-23T06:53:51;10.50;99.90
41060;DHT22;26811;53.160;8.202;2022-09-23T06:58:52;10.50;99.90
41060;DHT22;26811;53.160;8.202;2022-09-23T07:03:52;10.80;99.90
41060;DHT22;26811;53.160;8.202;2022-09-23T07:08:53;11.40;99.90
41060;DHT22;26811;53.160;8.202;2022-09-23T07:13:53;12.20;99.90
41060;DHT22;26811;53.160;8.202;2022-09-23T07:18:54;13.20;99.90
41060;DHT22;26811;53.160;8.202;2022-09-23T07:23:54;13.90;99.90
41060;DHT22;26811;53.160;8.202;2022-09-23T07:28:57;14.30;99.90
41060;DHT22;26811;53.160;8.202;2022-09-23T07:34:04;14.70;99.90
41060;DHT22;26811;53.160;8.202;2022-09-23T07:39:05;15.20;99.90
41060;DHT22;26811;53.160;8.202;2022-09-23T07:44:06;15.60;99.90
41060;DHT22;26811;53.160;8.202;2022-09-23T07:49:07;16.10;99.90
41060;DHT22;26811;53.160;8.202;2022-09-23T07:54:09;16.20;99.90
41060;DHT22;26811;53.160;8.202;2022-09-23T07:59:12;16.00;99.90
41060;DHT22;26811;53.160;8.202;2022-09-23T08:04:14;16.00;99.90
41060;DHT22;26811;53.160;8.202;2022-09-23T08:09:17;16.40;99.90
41060;DHT22;26811;53.160;8.202;2022-09-23T08:14:18;17.10;99.90
41060;DHT22;26811;53.160;8.202;2022-09-23T08:19:18;17.60;99.90
41060;DHT22;26811;53.160;8.202;2022-09-23T08:24:20;18.10;98.90
41060;DHT22;26811;53.160;8.202;2022-09-23T08:29:21;18.20;98.60
41060;DHT22;26811;53.160;8.202;2022-09-23T08:34:22;17.80;98.80
41060;DHT22;26811;53.160;8.202;2022-09-23T08:39:23;17.50;99.50
41060;DHT22;26811;53.160;8.202;2022-09-23T08:49:29;16.80;99.90
41060;DHT22;26811;53.160;8.202;2022-09-23T08:54:30;16.60;99.90
41060;DHT22;26811;53.160;8.202;2022-09-23T08:59:36;16.50;99.90
41060;DHT22;26811;53.160;8.202;2022-09-23T09:04:43;16.50;99.90
41060;DHT22;26811;53.160;8.202;2022-09-23T09:09:46;16.50;99.90
41060;DHT22;26811;53.160;8.202;2022-09-23T09:25:02;16.50;99.90
41060;DHT22;26811;53.160;8.202;2022-09-23T09:30:04;16.60;99.90
41060;DHT22;26811;53.160;8.202;2022-09-23T09:35:07;16.80;99.90
41060;DHT22;26811;53.160;8.202;2022-09-23T09:40:10;16.90;99.90
41060;DHT22;26811;53.160;8.202;2022-09-23T09:45:14;17.10;99.90
41060;DHT22;26811;53.160;8.202;2022-09-23T09:50:40;17.20;99.90
41060;DHT22;26811;53.160;8.202;2022-09-23T09:55:39;17.30;99.90
41060;DHT22;26811;53.160;8.202;2022-09-23T10:00:41;17.60;99.90
41060;DHT22;26811;53.160;8.202;2022-09-23T10:10:50;18.20;99.70
41060;DHT22;26811;53.160;8.202;2022-09-23T10:15:53;18.20;99.20
41060;DHT22;26811;53.160;8.202;2022-09-23T10:26:05;18.50;99.90
41060;DHT22;26811;53.160;8.202;2022-09-23T10:31:11;18.60;99.30
41060;DHT22;26811;53.160;8.202;2022-09-23T10:36:13;18.60;99.40
41060;DHT22;26811;53.160;8.202;2022-09-23T10:41:47;18.60;99.90
41060;DHT22;26811;53.160;8.202;2022-09-23T10:47:22;18.60;99.10
41060;DHT22;26811;53.160;8.202;2022-09-23T10:57:53;18.90;98.90
41060;DHT22;26811;53.160;8.202;2022-09-23T11:08:10;19.10;99.20
41060;DHT22;26811;53.160;8.202;2022-09-23T11:13:21;19.20;98.90
41060;DHT22;26811;53.160;8.202;2022-09-23T11:18:29;19.30;99.10
41060;DHT22;26811;53.160;8.202;2022-09-23T11:28:51;19.30;98.50
41060;DHT22;26811;53.160;8.202;2022-09-23T11:38:59;19.10;98.70
41060;DHT22;26811;53.160;8.202;2022-09-23T11:49:13;19.10;97.60
41060;DHT22;26811;53.160;8.202;2022-09-23T11:54:22;19.30;98.80
41060;DHT22;26811;53.160;8.202;2022-09-23T12:04:32;20.10;96.90
41060;DHT22;26811;53.160;8.202;2022-09-23T12:09:34;20.40;97.30
41060;DHT22;26811;53.160;8.202;2022-09-23T12:14:46;20.60;96.10
41060;DHT22;26811;53.160;8.202;2022-09-23T12:19:59;20.60;96.30
41060;DHT22;26811;53.160;8.202;2022-09-23T12:30:27;20.20;96.30
41060;DHT22;26811;53.160;8.202;2022-09-23T12:35:29;20.00;96.80
41060;DHT22;26811;53.160;8.202;2022-09-23T12:40:34;19.80;96.10
41060;DHT22;26811;53.160;8.202;2022-09-23T12:45:38;19.70;96.90
41060;DHT22;26811;53.160;8.202;2022-09-23T12:55:50;19.40;97.60
41060;DHT22;26811;53.160;8.202;2022-09-23T13:06:31;19.00;98.10
41060;DHT22;26811;53.160;8.202;2022-09-23T13:11:39;18.90;98.20
41060;DHT22;26811;53.160;8.202;2022-09-23T13:16:42;18.80;97.80
41060;DHT22;26811;53.160;8.202;2022-09-23T13:26:44;18.70;98.70
41060;DHT22;26811;53.160;8.202;2022-09-23T13:31:45;18.60;98.80
41060;DHT22;26811;53.160;8.202;2022-09-23T13:36:46;18.60;99.10
41060;DHT22;26811;53.160;8.202;2022-09-23T13:41:47;18.50;99.40
41060;DHT22;26811;53.160;8.202;2022-09-23T13:46:49;18.50;99.60
41060;DHT22;26811;53.160;8.202;2022-09-23T13:51:51;18.40;99.90
41060;DHT22;26811;53.160;8.202;2022-09-23T13:56:54;18.40;99.90
41060;DHT22;26811;53.160;8.202;2022-09-23T14:02:04;18.20;99.90
41060;DHT22;26811;53.160;8.202;2022-09-23T14:07:05;18.20;99.90
41060;DHT22;26811;53.160;8.202;2022-09-23T14:12:07;18.20;99.90
41060;DHT22;26811;53.160;8.202;2022-09-23T14:17:12;18.10;99.90
41060;DHT22;26811;53.160;8.202;2022-09-23T14:22:23;18.00;99.90
41060;DHT22;26811;53.160;8.202;2022-09-23T14:27:26;17.80;99.90
41060;DHT22;26811;53.160;8.202;2022-09-23T14:32:27;17.80;99.90
41060;DHT22;26811;53.160;8.202;2022-09-23T14:37:30;17.60;99.90
41060;DHT22;26811;53.160;8.202;2022-09-23T14:48:13;17.20;99.90
41060;DHT22;26811;53.160;8.202;2022-09-23T14:58:20;16.90;99.90
41060;DHT22;26811;53.160;8.202;2022-09-23T15:03:21;16.70;99.90
41060;DHT22;26811;53.160;8.202;2022-09-23T15:08:23;16.70;99.90
41060;DHT22;26811;53.160;8.202;2022-09-23T15:13:26;16.70;99.90
41060;DHT22;26811;53.160;8.202;2022-09-23T15:18:29;16.70;99.90
41060;DHT22;26811;53.160;8.202;2022-09-23T15:23:31;16.70;99.90
41060;DHT22;26811;53.160;8.202;2022-09-23T15:28:32;16.60;99.90
41060;DHT22;26811;53.160;8.202;2022-09-23T15:33:32;16.50;99.90
41060;DHT22;26811;53.160;8.202;2022-09-23T15:38:39;16.40;99.90
41060;DHT22;26811;53.160;8.202;2022-09-23T15:43:41;16.30;99.90
41060;DHT22;26811;53.160;8.202;2022-09-23T15:48:42;16.20;99.90
41060;DHT22;26811;53.160;8.202;2022-09-23T15:53:44;16.10;99.90
41060;DHT22;26811;53.160;8.202;2022-09-23T15:58:44;16.10;99.90
41060;DHT22;26811;53.160;8.202;2022-09-23T16:03:46;16.10;99.90
41060;DHT22;26811;53.160;8.202;2022-09-23T16:08:46;16.00;99.90
41060;DHT22;26811;53.160;8.202;2022-09-23T16:13:48;15.90;99.90
41060;DHT22;26811;53.160;8.202;2022-09-23T16:18:49;15.70;99.90
41060;DHT22;26811;53.160;8.202;2022-09-23T16:23:52;15.50;99.90
41060;DHT22;26811;53.160;8.202;2022-09-23T16:28:54;15.30;99.90
41060;DHT22;26811;53.160;8.202;2022-09-23T16:33:55;15.10;99.90
41060;DHT22;26811;53.160;8.202;2022-09-23T16:38:59;15.00;99.90
41060;DHT22;26811;53.160;8.202;2022-09-23T16:44:01;14.80;99.90
41060;DHT22;26811;53.160;8.202;2022-09-23T16:49:03;14.80;99.90
41060;DHT22;26811;53.160;8.202;2022-09-23T16:54:05;14.70;99.90
41060;DHT22;26811;53.160;8.202;2022-09-23T16:59:08;14.60;99.90
41060;DHT22;26811;53.160;8.202;2022-09-23T17:04:09;14.50;99.90
41060;DHT22;26811;53.160;8.202;2022-09-23T17:09:10;14.40;99.90
41060;DHT22;26811;53.160;8.202;2022-09-23T17:14:10;14.30;99.90
41060;DHT22;26811;53.160;8.202;2022-09-23T17:19:10;14.20;99.90
41060;DHT22;26811;53.160;8.202;2022-09-23T17:24:11;14.10;99.90
41060;DHT22;26811;53.160;8.202;2022-09-23T17:29:11;14.00;99.90
41060;DHT22;26811;53.160;8.202;2022-09-23T17:34:14;14.00;99.90
41060;DHT22;26811;53.160;8.202;2022-09-23T17:39:16;13.90;99.90
41060;DHT22;26811;53.160;8.202;2022-09-23T17:44:16;13.80;99.90
41060;DHT22;26811;53.160;8.202;2022-09-23T17:49:17;13.80;99.90
41060;DHT22;26811;53.160;8.202;2022-09-23T17:54:17;13.70;99.90
41060;DHT22;26811;53.160;8.202;2022-09-23T17:59:17;13.70;99.90
41060;DHT22;26811;53.160;8.202;2022-09-23T18:04:18;13.70;99.90
41060;DHT22;26811;53.160;8.202;2022-09-23T18:09:18;13.70;99.90
41060;DHT22;26811;53.160;8.202;2022-09-23T18:14:20;13.60;99.90
41060;DHT22;26811;53.160;8.202;2022-09-23T18:19:21;13.60;99.90
41060;DHT22;26811;53.160;8.202;2022-09-23T18:24:22;13.60;99.90
41060;DHT22;26811;53.160;8.202;2022-09-23T18:29:22;13.50;99.90
41060;DHT22;26811;53.160;8.202;2022-09-23T18:34:23;13.60;99.90
41060;DHT22;26811;53.160;8.202;2022-09-23T18:39:24;13.50;99.90
41060;DHT22;26811;53.160;8.202;2022-09-23T18:44:25;13.50;99.90
41060;DHT22;26811;53.160;8.202;2022-09-23T18:49:25;13.50;99.90
41060;DHT22;26811;53.160;8.202;2022-09-23T18:54:44;13.50;99.90
41060;DHT22;26811;53.160;8.202;2022-09-23T18:59:45;13.50;99.90
41060;DHT22;26811;53.160;8.202;2022-09-23T19:04:46;13.50;99.90
41060;DHT22;26811;53.160;8.202;2022-09-23T19:09:46;13.50;99.90
41060;DHT22;26811;53.160;8.202;2022-09-23T19:14:47;13.50;99.90
41060;DHT22;26811;53.160;8.202;2022-09-23T19:19:47;13.60;99.90
41060;DHT22;26811;53.160;8.202;2022-09-23T19:24:49;13.50;99.90
41060;DHT22;26811;53.160;8.202;2022-09-23T19:29:49;13.40;99.90
41060;DHT22;26811;53.160;8.202;2022-09-23T19:34:50;13.40;99.90
41060;DHT22;26811;53.160;8.202;2022-09-23T19:39:50;13.40;99.90
41060;DHT22;26811;53.160;8.202;2022-09-23T19:44:51;13.30;99.90
41060;DHT22;26811;53.160;8.202;2022-09-23T19:49:53;13.30;99.90
41060;DHT22;26811;53.160;8.202;2022-09-23T19:54:54;13.30;99.90
41060;DHT22;26811;53.160;8.202;2022-09-23T19:59:54;13.20;99.90
41060;DHT22;26811;53.160;8.202;2022-09-23T20:04:55;13.20;99.90
41060;DHT22;26811;53.160;8.202;2022-09-23T20:09:55;13.10;99.90
41060;DHT22;26811;53.160;8.202;2022-09-23T20:14:56;13.10;99.90
41060;DHT22;26811;53.160;8.202;2022-09-23T20:19:56;13.10;99.90
41060;DHT22;26811;53.160;8.202;2022-09-23T20:24:57;13.10;99.90
41060;DHT22;26811;53.160;8.202;2022-09-23T20:29:57;13.00;99.90
41060;DHT22;26811;53.160;8.202;2022-09-23T20:34:59;13.00;99.90
41060;DHT22;26811;53.160;8.202;2022-09-23T20:40:00;12.90;99.90
41060;DHT22;26811;53.160;8.202;2022-09-23T20:45:00;12.90;99.90
41060;DHT22;26811;53.160;8.202;2022-09-23T20:50:01;12.90;99.90
41060;DHT22;26811;53.160;8.202;2022-09-23T20:55:02;12.80;99.90
41060;DHT22;26811;53.160;8.202;2022-09-23T21:00:02;12.80;99.90
41060;DHT22;26811;53.160;8.202;2022-09-23T21:05:04;12.80;99.90
41060;DHT22;26811;53.160;8.202;2022-09-23T21:10:04;12.70;99.90
41060;DHT22;26811;53.160;8.202;2022-09-23T21:15:06;12.70;99.90
41060;DHT22;26811;53.160;8.202;2022-09-23T21:20:07;12.70;99.90
41060;DHT22;26811;53.160;8.202;2022-09-23T21:25:07;12.70;99.90
41060;DHT22;26811;53.160;8.202;2022-09-23T21:30:08;12.70;99.90
41060;DHT22;26811;53.160;8.202;2022-09-23T21:35:09;12.70;99.90
41060;DHT22;26811;53.160;8.202;2022-09-23T21:40:09;12.70;99.90
41060;DHT22;26811;53.160;8.202;2022-09-23T21:45:28;12.70;99.90
41060;DHT22;26811;53.160;8.202;2022-09-23T21:50:30;12.60;99.90
41060;DHT22;26811;53.160;8.202;2022-09-23T21:55:31;12.70;99.90
41060;DHT22;26811;53.160;8.202;2022-09-23T22:00:32;12.70;99.90
41060;DHT22;26811;53.160;8.202;2022-09-23T22:05:32;12.60;99.90
41060;DHT22;26811;53.160;8.202;2022-09-23T22:10:34;12.60;99.90
41060;DHT22;26811;53.160;8.202;2022-09-23T22:15:34;12.60;99.90
41060;DHT22;26811;53.160;8.202;2022-09-23T22:20:36;12.60;99.90
41060;DHT22;26811;53.160;8.202;2022-09-23T22:25:36;12.50;99.90
41060;DHT22;26811;53.160;8.202;2022-09-23T22:30:37;12.50;99.90
41060;DHT22;26811;53.160;8.202;2022-09-23T22:36:00;12.50;99.90
41060;DHT22;26811;53.160;8.202;2022-09-23T22:41:00;12.50;99.90
41060;DHT22;26811;53.160;8.202;2022-09-23T22:46:01;12.50;99.90
41060;DHT22;26811;53.160;8.202;2022-09-23T22:51:04;12.50;99.90
41060;DHT22;26811;53.160;8.202;2022-09-23T22:56:05;12.50;99.90
41060;DHT22;26811;53.160;8.202;2022-09-23T23:01:05;12.50;99.90
41060;DHT22;26811;53.160;8.202;2022-09-23T23:06:07;12.50;99.90
41060;DHT22;26811;53.160;8.202;2022-09-23T23:11:08;12.40;99.90
41060;DHT22;26811;53.160;8.202;2022-09-23T23:16:09;12.50;99.90
41060;DHT22;26811;53.160;8.202;2022-09-23T23:21:11;12.40;99.90
41060;DHT22;26811;53.160;8.202;2022-09-23T23:26:16;12.40;99.90
41060;DHT22;26811;53.160;8.202;2022-09-23T23:31:19;12.40;99.90
41060;DHT22;26811;53.160;8.202;2022-09-23T23:36:21;12.40;99.90
41060;DHT22;26811;53.160;8.202;2022-09-23T23:41:21;12.30;99.90
41060;DHT22;26811;53.160;8.202;2022-09-23T23:46:22;12.30;99.90
41060;DHT22;26811;53.160;8.202;2022-09-23T23:51:26;12.30;99.90
41060;DHT22;26811;53.160;8.202;2022-09-23T23:56:28;12.30;99.90
